White Deer, Pennsylvania
Current Conditions -  °F | °C
As of 5:54 PM on Sunday 21 Dec 2014 (Local Time) from KIPT Reporting Station
Clear Clear  
Wind Chill: 25°   Ceiling: Unl
Heat Index: 30°   Visibility: 10mi
Dew Point: 20°   Wind: 5mph
Humidity: 66%   Direction: 270°W
Pressure: 30.31"   Gusts: NA
Location:  41.08°N, 76.87°W
Report Text: KIPT 212254Z 27004KT 10SM CLR M01/M07 A3031 RMK AO2 SLP272 T10111067
Loading
Personal Weather Stations






























Interactive Weather Map New forecast layout! Learn more

10-Day Weather Forecast

Advertisements
Track Severe Weather on mobile